< Typhoon 199302 1993 Season Typhoon 199304 >
Typhoon 199303 (LEWIS)
General InformationTrack Information on Google MapsDetailed Wind InformationList of All Images || Disaster Info.ResourceGoogle EarthGE AnimationAtom FeedGeoJSON
Detalied Best Track (Time Zone = UTC)
Year Month Day Hour Lat. Long. Pressure (hPa) Wind (kt) Class Image Chart
1993 7 7 00 9.3 128.0 1006 0 2 Image Chart
1993 7 7 06 10.1 127.5 1006 0 2 Image Chart
1993 7 7 12 10.7 127.0 1008 0 2 Image Chart
1993 7 7 18 11.3 126.3 1006 0 2 Image Chart
1993 7 8 00 12.0 125.2 1008 0 2 Image Chart
1993 7 8 06 12.7 124.1 1004 0 2 Image Chart
1993 7 8 09 12.9 123.6 1000 35 3 Image Chart
1993 7 8 12 13.2 122.9 998 35 3 Image Chart
1993 7 8 18 13.5 122.0 998 35 3 Image Chart
1993 7 9 00 14.3 120.2 998 40 3 Image Chart
1993 7 9 06 15.1 118.7 996 40 3 Image Chart
1993 7 9 12 16.0 117.0 990 45 3 Image Chart
1993 7 9 18 16.7 115.3 990 45 3 Image Chart
1993 7 10 00 17.4 113.7 985 50 4 Image Chart
1993 7 10 06 18.0 112.0 980 55 4 Image Chart
1993 7 10 12 18.3 110.7 975 60 4 Image Chart
1993 7 10 18 18.5 109.4 975 60 4 Image Chart
1993 7 11 00 18.6 108.1 980 55 4 Image Chart
1993 7 11 06 18.8 107.3 985 50 4 Image Chart
1993 7 11 12 19.0 106.9 985 50 4 Image Chart
1993 7 11 18 19.1 106.4 985 50 4 Image Chart
1993 7 12 00 19.2 105.8 985 50 4 Image Chart
1993 7 12 06 19.4 104.5 992 40 3 Image Chart
1993 7 12 12 19.4 103.1 998 0 2 Image Chart
1993 7 12 18 19.5 102.6 998 0 2 Image Chart
1993 7 13 00 19.5 102.3 998 0 2 Image Chart
1993 7 13 06 19.5 102.0 1000 0 2 Image Chart
Japan Meteorological Agency Best Track Data | Correction Date : 1994-01-10
< Typhoon 199302 1993 Season Typhoon 199304 >

Help